sensor_id;sensor_type;location;lat;lon;timestamp;P1;durP1;ratioP1;P2;durP2;ratioP2
25868;SDS011;13688;53.154;18.136;2024-01-11T00:01:58;41.33;;;15.75;;
25868;SDS011;13688;53.154;18.136;2024-01-11T00:07:22;40.25;;;15.13;;
25868;SDS011;13688;53.154;18.136;2024-01-11T00:12:45;41.40;;;16.60;;
25868;SDS011;13688;53.154;18.136;2024-01-11T00:18:08;38.73;;;14.55;;
25868;SDS011;13688;53.154;18.136;2024-01-11T00:23:31;36.50;;;14.85;;
25868;SDS011;13688;53.154;18.136;2024-01-11T00:28:53;36.53;;;13.50;;
25868;SDS011;13688;53.154;18.136;2024-01-11T00:34:16;38.08;;;12.90;;
25868;SDS011;13688;53.154;18.136;2024-01-11T00:39:40;34.75;;;13.20;;
25868;SDS011;13688;53.154;18.136;2024-01-11T00:45:02;32.05;;;12.95;;
25868;SDS011;13688;53.154;18.136;2024-01-11T00:50:25;35.68;;;13.08;;
25868;SDS011;13688;53.154;18.136;2024-01-11T00:55:49;31.05;;;12.33;;
25868;SDS011;13688;53.154;18.136;2024-01-11T01:01:12;32.13;;;12.65;;
25868;SDS011;13688;53.154;18.136;2024-01-11T01:06:35;39.20;;;14.13;;
25868;SDS011;13688;53.154;18.136;2024-01-11T01:11:58;33.67;;;13.23;;
25868;SDS011;13688;53.154;18.136;2024-01-11T01:17:24;44.00;;;14.60;;
25868;SDS011;13688;53.154;18.136;2024-01-11T01:22:47;40.58;;;14.98;;
25868;SDS011;13688;53.154;18.136;2024-01-11T01:28:10;41.33;;;15.30;;
25868;SDS011;13688;53.154;18.136;2024-01-11T01:33:32;41.75;;;14.83;;
25868;SDS011;13688;53.154;18.136;2024-01-11T01:38:56;41.90;;;15.13;;
25868;SDS011;13688;53.154;18.136;2024-01-11T01:44:21;43.05;;;15.28;;
25868;SDS011;13688;53.154;18.136;2024-01-11T01:49:45;49.27;;;17.23;;
25868;SDS011;13688;53.154;18.136;2024-01-11T01:55:10;44.65;;;17.50;;
25868;SDS011;13688;53.154;18.136;2024-01-11T02:00:36;46.55;;;17.25;;
25868;SDS011;13688;53.154;18.136;2024-01-11T02:12:06;52.43;;;18.23;;
25868;SDS011;13688;53.154;18.136;2024-01-11T02:17:30;49.37;;;17.97;;
25868;SDS011;13688;53.154;18.136;2024-01-11T02:22:56;51.90;;;18.97;;
25868;SDS011;13688;53.154;18.136;2024-01-11T02:28:22;48.90;;;18.23;;
25868;SDS011;13688;53.154;18.136;2024-01-11T02:33:45;50.93;;;18.10;;
25868;SDS011;13688;53.154;18.136;2024-01-11T02:39:08;48.40;;;16.53;;
25868;SDS011;13688;53.154;18.136;2024-01-11T02:44:33;43.83;;;16.23;;
25868;SDS011;13688;53.154;18.136;2024-01-11T02:49:55;43.80;;;15.77;;
25868;SDS011;13688;53.154;18.136;2024-01-11T02:55:18;39.07;;;14.60;;
25868;SDS011;13688;53.154;18.136;2024-01-11T03:00:41;38.97;;;14.83;;
25868;SDS011;13688;53.154;18.136;2024-01-11T03:06:04;41.87;;;15.23;;
25868;SDS011;13688;53.154;18.136;2024-01-11T03:11:27;37.10;;;13.47;;
25868;SDS011;13688;53.154;18.136;2024-01-11T03:16:50;34.20;;;13.93;;
25868;SDS011;13688;53.154;18.136;2024-01-11T03:22:13;36.47;;;14.77;;
25868;SDS011;13688;53.154;18.136;2024-01-11T03:27:36;39.30;;;15.30;;
25868;SDS011;13688;53.154;18.136;2024-01-11T03:32:58;35.30;;;14.20;;
25868;SDS011;13688;53.154;18.136;2024-01-11T03:38:21;33.37;;;14.10;;
25868;SDS011;13688;53.154;18.136;2024-01-11T03:43:44;34.97;;;13.93;;
25868;SDS011;13688;53.154;18.136;2024-01-11T03:49:08;31.40;;;13.00;;
25868;SDS011;13688;53.154;18.136;2024-01-11T03:54:31;40.10;;;15.80;;
25868;SDS011;13688;53.154;18.136;2024-01-11T03:59:53;34.00;;;15.23;;
25868;SDS011;13688;53.154;18.136;2024-01-11T04:05:17;34.17;;;14.70;;
25868;SDS011;13688;53.154;18.136;2024-01-11T04:10:40;34.33;;;13.90;;
25868;SDS011;13688;53.154;18.136;2024-01-11T04:16:05;30.57;;;13.90;;
25868;SDS011;13688;53.154;18.136;2024-01-11T04:21:28;33.70;;;14.20;;
25868;SDS011;13688;53.154;18.136;2024-01-11T04:26:50;31.60;;;14.40;;
25868;SDS011;13688;53.154;18.136;2024-01-11T04:32:13;31.57;;;14.57;;
25868;SDS011;13688;53.154;18.136;2024-01-11T04:37:36;33.90;;;15.27;;
25868;SDS011;13688;53.154;18.136;2024-01-11T04:42:58;29.07;;;13.67;;
25868;SDS011;13688;53.154;18.136;2024-01-11T04:48:21;29.10;;;13.77;;
25868;SDS011;13688;53.154;18.136;2024-01-11T04:53:44;32.17;;;14.20;;
25868;SDS011;13688;53.154;18.136;2024-01-11T04:59:06;26.83;;;13.90;;
25868;SDS011;13688;53.154;18.136;2024-01-11T05:04:29;23.63;;;12.53;;
25868;SDS011;13688;53.154;18.136;2024-01-11T05:09:52;23.20;;;13.33;;
25868;SDS011;13688;53.154;18.136;2024-01-11T05:15:15;24.77;;;12.63;;
25868;SDS011;13688;53.154;18.136;2024-01-11T05:20:37;22.93;;;12.43;;
25868;SDS011;13688;53.154;18.136;2024-01-11T05:26:00;24.40;;;13.33;;
25868;SDS011;13688;53.154;18.136;2024-01-11T05:31:25;20.93;;;12.50;;
25868;SDS011;13688;53.154;18.136;2024-01-11T05:36:48;20.77;;;11.33;;
25868;SDS011;13688;53.154;18.136;2024-01-11T05:42:11;18.87;;;11.03;;
25868;SDS011;13688;53.154;18.136;2024-01-11T05:47:34;21.60;;;11.93;;
25868;SDS011;13688;53.154;18.136;2024-01-11T05:52:57;19.10;;;11.70;;
25868;SDS011;13688;53.154;18.136;2024-01-11T05:58:20;19.57;;;12.33;;
25868;SDS011;13688;53.154;18.136;2024-01-11T06:03:43;18.83;;;11.33;;
25868;SDS011;13688;53.154;18.136;2024-01-11T06:09:06;19.73;;;11.63;;
25868;SDS011;13688;53.154;18.136;2024-01-11T06:14:29;18.50;;;12.20;;
25868;SDS011;13688;53.154;18.136;2024-01-11T06:19:51;17.93;;;11.67;;
25868;SDS011;13688;53.154;18.136;2024-01-11T06:25:15;20.80;;;12.10;;
25868;SDS011;13688;53.154;18.136;2024-01-11T06:30:38;18.60;;;11.47;;
25868;SDS011;13688;53.154;18.136;2024-01-11T06:36:00;18.30;;;11.23;;
25868;SDS011;13688;53.154;18.136;2024-01-11T06:41:23;18.13;;;11.40;;
25868;SDS011;13688;53.154;18.136;2024-01-11T06:46:47;19.37;;;12.20;;
25868;SDS011;13688;53.154;18.136;2024-01-11T06:52:09;17.57;;;11.57;;
25868;SDS011;13688;53.154;18.136;2024-01-11T06:57:32;17.67;;;11.20;;
25868;SDS011;13688;53.154;18.136;2024-01-11T07:02:58;17.70;;;11.37;;
25868;SDS011;13688;53.154;18.136;2024-01-11T07:08:22;19.23;;;11.73;;
25868;SDS011;13688;53.154;18.136;2024-01-11T07:13:45;17.93;;;11.57;;
25868;SDS011;13688;53.154;18.136;2024-01-11T07:19:08;18.95;;;11.85;;
25868;SDS011;13688;53.154;18.136;2024-01-11T07:24:31;18.30;;;11.23;;
25868;SDS011;13688;53.154;18.136;2024-01-11T07:29:54;21.52;;;11.95;;
25868;SDS011;13688;53.154;18.136;2024-01-11T07:35:17;20.10;;;12.37;;
25868;SDS011;13688;53.154;18.136;2024-01-11T07:40:40;18.17;;;11.60;;
25868;SDS011;13688;53.154;18.136;2024-01-11T07:46:03;18.87;;;11.63;;
25868;SDS011;13688;53.154;18.136;2024-01-11T07:51:27;19.47;;;12.57;;
25868;SDS011;13688;53.154;18.136;2024-01-11T07:56:49;23.23;;;12.67;;
25868;SDS011;13688;53.154;18.136;2024-01-11T08:02:12;19.63;;;12.30;;
25868;SDS011;13688;53.154;18.136;2024-01-11T08:07:35;21.93;;;12.80;;
25868;SDS011;13688;53.154;18.136;2024-01-11T08:12:58;20.33;;;12.57;;
25868;SDS011;13688;53.154;18.136;2024-01-11T08:18:21;24.07;;;13.68;;
25868;SDS011;13688;53.154;18.136;2024-01-11T08:23:43;21.50;;;12.50;;
25868;SDS011;13688;53.154;18.136;2024-01-11T08:29:06;22.97;;;13.07;;
25868;SDS011;13688;53.154;18.136;2024-01-11T08:34:31;24.63;;;13.58;;
25868;SDS011;13688;53.154;18.136;2024-01-11T08:39:54;23.90;;;13.37;;
25868;SDS011;13688;53.154;18.136;2024-01-11T08:45:17;23.80;;;14.50;;
25868;SDS011;13688;53.154;18.136;2024-01-11T08:50:40;25.27;;;14.07;;
25868;SDS011;13688;53.154;18.136;2024-01-11T08:56:04;21.37;;;12.78;;
25868;SDS011;13688;53.154;18.136;2024-01-11T09:01:27;19.73;;;12.73;;
25868;SDS011;13688;53.154;18.136;2024-01-11T09:06:53;23.77;;;13.00;;
25868;SDS011;13688;53.154;18.136;2024-01-11T09:12:16;20.20;;;12.47;;
25868;SDS011;13688;53.154;18.136;2024-01-11T09:17:38;22.77;;;13.32;;
25868;SDS011;13688;53.154;18.136;2024-01-11T09:23:01;22.00;;;12.17;;
25868;SDS011;13688;53.154;18.136;2024-01-11T09:28:24;19.60;;;11.38;;
25868;SDS011;13688;53.154;18.136;2024-01-11T09:33:46;26.67;;;12.20;;
25868;SDS011;13688;53.154;18.136;2024-01-11T09:39:09;23.03;;;10.97;;
25868;SDS011;13688;53.154;18.136;2024-01-11T09:44:33;19.90;;;11.57;;
25868;SDS011;13688;53.154;18.136;2024-01-11T09:49:57;16.30;;;10.33;;
25868;SDS011;13688;53.154;18.136;2024-01-11T09:55:22;17.13;;;9.63;;
25868;SDS011;13688;53.154;18.136;2024-01-11T10:00:45;20.00;;;10.30;;
25868;SDS011;13688;53.154;18.136;2024-01-11T10:06:11;17.30;;;9.03;;
25868;SDS011;13688;53.154;18.136;2024-01-11T10:11:35;15.93;;;9.65;;
25868;SDS011;13688;53.154;18.136;2024-01-11T10:16:59;15.67;;;9.40;;
25868;SDS011;13688;53.154;18.136;2024-01-11T10:22:23;18.30;;;10.10;;
25868;SDS011;13688;53.154;18.136;2024-01-11T10:27:46;17.70;;;9.33;;
25868;SDS011;13688;53.154;18.136;2024-01-11T10:33:09;14.93;;;8.80;;
25868;SDS011;13688;53.154;18.136;2024-01-11T10:38:32;17.00;;;8.93;;
25868;SDS011;13688;53.154;18.136;2024-01-11T10:43:56;15.08;;;8.38;;
25868;SDS011;13688;53.154;18.136;2024-01-11T10:49:41;14.43;;;7.10;;
25868;SDS011;13688;53.154;18.136;2024-01-11T10:55:08;16.60;;;8.57;;
25868;SDS011;13688;53.154;18.136;2024-01-11T11:00:34;15.10;;;8.50;;
25868;SDS011;13688;53.154;18.136;2024-01-11T11:05:58;18.62;;;8.20;;
25868;SDS011;13688;53.154;18.136;2024-01-11T11:11:23;14.93;;;8.10;;
25868;SDS011;13688;53.154;18.136;2024-01-11T11:16:49;15.20;;;8.43;;
25868;SDS011;13688;53.154;18.136;2024-01-11T11:22:14;13.48;;;7.53;;
25868;SDS011;13688;53.154;18.136;2024-01-11T11:27:41;16.70;;;8.40;;
25868;SDS011;13688;53.154;18.136;2024-01-11T11:33:17;12.17;;;7.23;;
25868;SDS011;13688;53.154;18.136;2024-01-11T11:38:44;12.78;;;7.12;;
25868;SDS011;13688;53.154;18.136;2024-01-11T11:44:10;15.70;;;7.50;;
25868;SDS011;13688;53.154;18.136;2024-01-11T11:55:29;14.90;;;8.67;;
25868;SDS011;13688;53.154;18.136;2024-01-11T12:00:53;14.00;;;7.70;;
25868;SDS011;13688;53.154;18.136;2024-01-11T12:06:21;14.45;;;7.78;;
25868;SDS011;13688;53.154;18.136;2024-01-11T12:11:47;11.50;;;6.90;;
25868;SDS011;13688;53.154;18.136;2024-01-11T12:17:13;12.10;;;7.33;;
25868;SDS011;13688;53.154;18.136;2024-01-11T12:22:37;14.40;;;6.87;;
25868;SDS011;13688;53.154;18.136;2024-01-11T12:28:01;13.32;;;7.12;;
25868;SDS011;13688;53.154;18.136;2024-01-11T12:33:30;13.27;;;6.50;;
25868;SDS011;13688;53.154;18.136;2024-01-11T12:38:53;11.15;;;6.22;;
25868;SDS011;13688;53.154;18.136;2024-01-11T12:44:18;10.25;;;5.50;;
25868;SDS011;13688;53.154;18.136;2024-01-11T12:49:44;11.80;;;6.22;;
25868;SDS011;13688;53.154;18.136;2024-01-11T12:55:08;14.58;;;6.92;;
25868;SDS011;13688;53.154;18.136;2024-01-11T13:00:39;12.93;;;6.63;;
25868;SDS011;13688;53.154;18.136;2024-01-11T13:06:04;13.15;;;6.47;;
25868;SDS011;13688;53.154;18.136;2024-01-11T13:11:30;10.75;;;6.05;;
25868;SDS011;13688;53.154;18.136;2024-01-11T13:16:54;10.05;;;4.83;;
25868;SDS011;13688;53.154;18.136;2024-01-11T13:22:18;10.63;;;5.97;;
25868;SDS011;13688;53.154;18.136;2024-01-11T13:27:42;12.80;;;5.40;;
25868;SDS011;13688;53.154;18.136;2024-01-11T13:33:06;10.88;;;5.95;;
25868;SDS011;13688;53.154;18.136;2024-01-11T13:38:32;11.78;;;5.83;;
25868;SDS011;13688;53.154;18.136;2024-01-11T13:43:57;11.38;;;5.50;;
25868;SDS011;13688;53.154;18.136;2024-01-11T13:49:23;11.48;;;5.95;;
25868;SDS011;13688;53.154;18.136;2024-01-11T13:54:47;12.20;;;6.00;;
25868;SDS011;13688;53.154;18.136;2024-01-11T14:00:12;15.35;;;7.03;;
25868;SDS011;13688;53.154;18.136;2024-01-11T14:05:37;15.43;;;7.17;;
25868;SDS011;13688;53.154;18.136;2024-01-11T14:11:02;12.00;;;6.78;;
25868;SDS011;13688;53.154;18.136;2024-01-11T14:16:26;13.53;;;7.00;;
25868;SDS011;13688;53.154;18.136;2024-01-11T14:21:54;12.13;;;6.60;;
25868;SDS011;13688;53.154;18.136;2024-01-11T14:27:17;13.85;;;6.50;;
25868;SDS011;13688;53.154;18.136;2024-01-11T14:32:40;13.50;;;6.97;;
25868;SDS011;13688;53.154;18.136;2024-01-11T14:38:03;14.60;;;6.87;;
25868;SDS011;13688;53.154;18.136;2024-01-11T14:43:27;11.37;;;6.33;;
25868;SDS011;13688;53.154;18.136;2024-01-11T14:48:50;12.57;;;5.83;;
25868;SDS011;13688;53.154;18.136;2024-01-11T14:54:13;16.25;;;6.28;;
25868;SDS011;13688;53.154;18.136;2024-01-11T14:59:35;12.55;;;6.60;;
25868;SDS011;13688;53.154;18.136;2024-01-11T15:04:59;14.23;;;6.97;;
25868;SDS011;13688;53.154;18.136;2024-01-11T15:10:22;14.13;;;7.65;;
25868;SDS011;13688;53.154;18.136;2024-01-11T15:15:46;13.33;;;7.30;;
25868;SDS011;13688;53.154;18.136;2024-01-11T15:21:11;15.93;;;7.93;;
25868;SDS011;13688;53.154;18.136;2024-01-11T15:26:36;15.00;;;7.35;;
25868;SDS011;13688;53.154;18.136;2024-01-11T15:32:00;13.18;;;6.80;;
25868;SDS011;13688;53.154;18.136;2024-01-11T15:37:24;11.50;;;6.20;;
25868;SDS011;13688;53.154;18.136;2024-01-11T15:42:48;11.27;;;5.80;;
25868;SDS011;13688;53.154;18.136;2024-01-11T15:48:11;11.22;;;5.62;;
25868;SDS011;13688;53.154;18.136;2024-01-11T15:53:37;10.80;;;5.37;;
25868;SDS011;13688;53.154;18.136;2024-01-11T15:59:01;11.77;;;4.80;;
25868;SDS011;13688;53.154;18.136;2024-01-11T16:04:26;12.80;;;4.63;;
25868;SDS011;13688;53.154;18.136;2024-01-11T16:09:53;11.20;;;4.20;;
25868;SDS011;13688;53.154;18.136;2024-01-11T16:15:15;10.28;;;4.45;;
25868;SDS011;13688;53.154;18.136;2024-01-11T16:20:40;9.63;;;3.98;;
25868;SDS011;13688;53.154;18.136;2024-01-11T16:26:05;12.73;;;3.87;;
25868;SDS011;13688;53.154;18.136;2024-01-11T16:31:28;8.50;;;3.77;;
25868;SDS011;13688;53.154;18.136;2024-01-11T16:36:50;7.87;;;3.83;;
25868;SDS011;13688;53.154;18.136;2024-01-11T16:42:12;6.33;;;2.87;;
25868;SDS011;13688;53.154;18.136;2024-01-11T16:47:36;6.55;;;2.98;;
25868;SDS011;13688;53.154;18.136;2024-01-11T16:53:00;9.00;;;2.67;;
25868;SDS011;13688;53.154;18.136;2024-01-11T16:58:24;7.15;;;2.52;;
25868;SDS011;13688;53.154;18.136;2024-01-11T17:03:49;7.03;;;2.58;;
25868;SDS011;13688;53.154;18.136;2024-01-11T17:09:14;5.28;;;2.62;;
25868;SDS011;13688;53.154;18.136;2024-01-11T17:14:39;5.33;;;2.70;;
25868;SDS011;13688;53.154;18.136;2024-01-11T17:20:03;5.40;;;2.55;;
25868;SDS011;13688;53.154;18.136;2024-01-11T17:25:27;5.72;;;2.70;;
25868;SDS011;13688;53.154;18.136;2024-01-11T17:30:51;5.12;;;2.52;;
25868;SDS011;13688;53.154;18.136;2024-01-11T17:36:16;5.92;;;2.42;;
25868;SDS011;13688;53.154;18.136;2024-01-11T17:41:41;8.55;;;3.08;;
25868;SDS011;13688;53.154;18.136;2024-01-11T17:47:04;10.23;;;3.40;;
25868;SDS011;13688;53.154;18.136;2024-01-11T17:52:28;5.85;;;2.50;;
25868;SDS011;13688;53.154;18.136;2024-01-11T17:57:54;5.83;;;2.87;;
25868;SDS011;13688;53.154;18.136;2024-01-11T18:03:18;7.20;;;2.67;;
25868;SDS011;13688;53.154;18.136;2024-01-11T18:08:42;6.35;;;2.83;;
25868;SDS011;13688;53.154;18.136;2024-01-11T18:14:06;7.43;;;3.50;;
25868;SDS011;13688;53.154;18.136;2024-01-11T18:19:33;6.55;;;2.40;;
25868;SDS011;13688;53.154;18.136;2024-01-11T18:25:35;5.90;;;2.77;;
25868;SDS011;13688;53.154;18.136;2024-01-11T18:30:59;5.50;;;2.87;;
25868;SDS011;13688;53.154;18.136;2024-01-11T18:36:23;7.40;;;3.13;;
25868;SDS011;13688;53.154;18.136;2024-01-11T18:41:52;8.37;;;3.30;;
25868;SDS011;13688;53.154;18.136;2024-01-11T18:47:17;10.90;;;3.27;;
25868;SDS011;13688;53.154;18.136;2024-01-11T18:52:40;7.60;;;3.60;;
25868;SDS011;13688;53.154;18.136;2024-01-11T18:58:05;9.33;;;3.47;;
25868;SDS011;13688;53.154;18.136;2024-01-11T19:03:29;11.35;;;3.20;;
25868;SDS011;13688;53.154;18.136;2024-01-11T19:08:54;7.80;;;3.13;;
25868;SDS011;13688;53.154;18.136;2024-01-11T19:14:17;8.53;;;3.10;;
25868;SDS011;13688;53.154;18.136;2024-01-11T19:19:41;9.45;;;3.27;;
25868;SDS011;13688;53.154;18.136;2024-01-11T19:25:06;7.78;;;2.47;;
25868;SDS011;13688;53.154;18.136;2024-01-11T19:30:30;7.35;;;2.72;;
25868;SDS011;13688;53.154;18.136;2024-01-11T19:35:55;7.92;;;2.72;;
25868;SDS011;13688;53.154;18.136;2024-01-11T19:41:21;6.33;;;2.65;;
25868;SDS011;13688;53.154;18.136;2024-01-11T19:46:46;7.72;;;3.17;;
25868;SDS011;13688;53.154;18.136;2024-01-11T19:52:10;8.35;;;3.42;;
25868;SDS011;13688;53.154;18.136;2024-01-11T19:57:34;11.43;;;3.75;;
25868;SDS011;13688;53.154;18.136;2024-01-11T20:03:00;8.73;;;3.37;;
25868;SDS011;13688;53.154;18.136;2024-01-11T20:08:25;9.30;;;3.37;;
25868;SDS011;13688;53.154;18.136;2024-01-11T20:13:50;9.93;;;3.50;;
25868;SDS011;13688;53.154;18.136;2024-01-11T20:19:16;11.65;;;4.17;;
25868;SDS011;13688;53.154;18.136;2024-01-11T20:24:40;10.53;;;3.72;;
25868;SDS011;13688;53.154;18.136;2024-01-11T20:30:05;8.87;;;3.20;;
25868;SDS011;13688;53.154;18.136;2024-01-11T20:35:29;10.18;;;3.45;;
25868;SDS011;13688;53.154;18.136;2024-01-11T20:40:52;14.47;;;3.65;;
25868;SDS011;13688;53.154;18.136;2024-01-11T20:46:22;8.73;;;3.22;;
25868;SDS011;13688;53.154;18.136;2024-01-11T20:51:43;10.93;;;3.08;;
25868;SDS011;13688;53.154;18.136;2024-01-11T20:57:08;6.73;;;2.90;;
25868;SDS011;13688;53.154;18.136;2024-01-11T21:02:33;9.98;;;3.60;;
25868;SDS011;13688;53.154;18.136;2024-01-11T21:07:59;12.87;;;3.57;;
25868;SDS011;13688;53.154;18.136;2024-01-11T21:13:24;10.65;;;3.40;;
25868;SDS011;13688;53.154;18.136;2024-01-11T21:18:50;11.17;;;4.33;;
25868;SDS011;13688;53.154;18.136;2024-01-11T21:24:15;11.03;;;3.50;;
25868;SDS011;13688;53.154;18.136;2024-01-11T21:29:40;14.58;;;4.25;;
25868;SDS011;13688;53.154;18.136;2024-01-11T21:35:05;11.68;;;3.15;;
25868;SDS011;13688;53.154;18.136;2024-01-11T21:40:30;15.13;;;4.05;;
25868;SDS011;13688;53.154;18.136;2024-01-11T21:45:55;8.43;;;2.83;;
25868;SDS011;13688;53.154;18.136;2024-01-11T21:51:20;8.73;;;2.80;;
25868;SDS011;13688;53.154;18.136;2024-01-11T21:56:45;8.40;;;2.70;;
25868;SDS011;13688;53.154;18.136;2024-01-11T22:02:09;13.93;;;3.90;;
25868;SDS011;13688;53.154;18.136;2024-01-11T22:07:32;7.42;;;2.70;;
25868;SDS011;13688;53.154;18.136;2024-01-11T22:12:57;10.10;;;3.00;;
25868;SDS011;13688;53.154;18.136;2024-01-11T22:18:22;8.05;;;2.83;;
25868;SDS011;13688;53.154;18.136;2024-01-11T22:23:47;11.53;;;3.63;;
25868;SDS011;13688;53.154;18.136;2024-01-11T22:29:11;11.53;;;3.37;;
25868;SDS011;13688;53.154;18.136;2024-01-11T22:34:37;12.35;;;3.42;;
25868;SDS011;13688;53.154;18.136;2024-01-11T22:40:02;10.40;;;3.87;;
25868;SDS011;13688;53.154;18.136;2024-01-11T22:45:27;11.53;;;3.25;;
25868;SDS011;13688;53.154;18.136;2024-01-11T22:50:51;12.20;;;3.17;;
25868;SDS011;13688;53.154;18.136;2024-01-11T22:56:18;15.47;;;3.57;;
25868;SDS011;13688;53.154;18.136;2024-01-11T23:01:43;12.15;;;3.00;;
25868;SDS011;13688;53.154;18.136;2024-01-11T23:07:08;7.47;;;3.43;;
25868;SDS011;13688;53.154;18.136;2024-01-11T23:12:33;10.77;;;3.23;;
25868;SDS011;13688;53.154;18.136;2024-01-11T23:18:02;8.73;;;3.27;;
25868;SDS011;13688;53.154;18.136;2024-01-11T23:23:23;7.87;;;2.62;;
25868;SDS011;13688;53.154;18.136;2024-01-11T23:28:48;12.28;;;3.50;;
25868;SDS011;13688;53.154;18.136;2024-01-11T23:34:14;8.60;;;2.70;;
25868;SDS011;13688;53.154;18.136;2024-01-11T23:39:39;9.93;;;2.65;;
25868;SDS011;13688;53.154;18.136;2024-01-11T23:45:04;10.35;;;2.75;;
25868;SDS011;13688;53.154;18.136;2024-01-11T23:50:27;11.55;;;2.47;;
25868;SDS011;13688;53.154;18.136;2024-01-11T23:55:53;8.15;;;2.27;;
